createdAt,value
2018-04-11T00:01:06.334Z,32.80
2018-04-11T00:03:33.743Z,31.43
2018-04-11T00:06:01.167Z,34.33
2018-04-11T00:08:28.609Z,31.73
2018-04-11T00:10:56.027Z,33.53
2018-04-11T00:13:23.447Z,33.23
2018-04-11T00:15:50.881Z,31.77
2018-04-11T00:18:18.311Z,32.37
2018-04-11T00:20:45.708Z,32.73
2018-04-11T00:23:13.127Z,32.57
2018-04-11T00:25:40.552Z,32.30
2018-04-11T00:28:07.972Z,33.27
2018-04-11T00:30:35.401Z,32.57
2018-04-11T00:33:02.816Z,32.27
2018-04-11T00:35:30.245Z,30.93
2018-04-11T00:37:57.651Z,29.90
2018-04-11T00:40:25.071Z,29.17
2018-04-11T00:42:52.486Z,30.43
2018-04-11T00:45:20.052Z,29.53
2018-04-11T00:47:47.460Z,29.97
2018-04-11T00:50:14.873Z,30.57
2018-04-11T00:55:42.968Z,30.67
2018-04-11T00:58:10.460Z,30.73
2018-04-11T01:00:37.874Z,30.73
2018-04-11T01:03:05.322Z,31.20
2018-04-11T01:05:32.740Z,29.87
2018-04-11T01:08:00.161Z,27.93
2018-04-11T01:10:27.567Z,28.13
2018-04-11T01:12:55.349Z,34.60
2018-04-11T01:15:22.720Z,30.07
2018-04-11T01:17:50.132Z,32.80
2018-04-11T01:20:17.548Z,27.70
2018-04-11T01:22:44.952Z,29.43
2018-04-11T01:25:12.375Z,30.63
2018-04-11T01:27:39.792Z,30.60
2018-04-11T01:30:07.233Z,32.90
2018-04-11T01:32:34.638Z,31.23
2018-04-11T01:35:02.058Z,33.00
2018-04-11T01:37:29.471Z,31.30
2018-04-11T01:39:56.892Z,30.27
2018-04-11T01:42:24.320Z,31.50
2018-04-11T01:44:51.723Z,30.87
2018-04-11T01:47:19.148Z,28.23
2018-04-11T01:49:46.570Z,28.27
2018-04-11T01:52:14.002Z,27.03
2018-04-11T01:54:41.411Z,29.37
2018-04-11T01:57:08.821Z,26.67
2018-04-11T01:59:36.520Z,26.70
2018-04-11T02:02:03.928Z,31.67
2018-04-11T02:04:31.343Z,30.60
2018-04-11T02:06:58.765Z,28.93
2018-04-11T02:09:26.167Z,28.43
2018-04-11T02:11:53.600Z,28.10
2018-04-11T02:14:21.014Z,28.90
2018-04-11T02:16:48.415Z,27.70
2018-04-11T02:19:15.841Z,29.00
2018-04-11T02:21:43.256Z,29.80
2018-04-11T02:24:10.687Z,29.33
2018-04-11T02:26:38.112Z,29.27
2018-04-11T02:29:05.543Z,28.00
2018-04-11T02:31:32.943Z,28.80
2018-04-11T02:34:00.368Z,27.87
2018-04-11T02:36:27.777Z,28.80
2018-04-11T02:38:55.297Z,29.03
2018-04-11T02:41:22.708Z,28.37
2018-04-11T02:43:50.115Z,29.10
2018-04-11T02:46:17.549Z,29.40
2018-04-11T02:48:45.038Z,26.70
2018-04-11T02:51:12.461Z,26.37
2018-04-11T02:53:39.880Z,27.83
2018-04-11T02:56:07.297Z,26.30
2018-04-11T02:58:34.707Z,26.10
2018-04-11T03:01:02.140Z,27.73
2018-04-11T03:03:29.857Z,28.30
2018-04-11T03:05:57.255Z,27.90
2018-04-11T03:08:24.671Z,27.43
2018-04-11T03:10:52.100Z,27.30
2018-04-11T03:13:19.523Z,29.90
2018-04-11T03:15:46.964Z,27.00
2018-04-11T03:18:14.389Z,29.93
2018-04-11T03:20:41.804Z,26.77
2018-04-11T03:23:09.228Z,29.30
2018-04-11T03:25:36.639Z,28.27
2018-04-11T03:28:04.080Z,28.53
2018-04-11T03:30:31.787Z,27.90
2018-04-11T03:32:59.223Z,31.73
2018-04-11T03:35:26.623Z,28.83
2018-04-11T03:37:54.047Z,26.07
2018-04-11T03:40:21.452Z,29.63
2018-04-11T03:42:48.883Z,28.27
2018-04-11T03:45:16.291Z,27.53
2018-04-11T03:47:43.711Z,28.07
2018-04-11T03:50:11.216Z,26.57
2018-04-11T03:52:38.623Z,30.93
2018-04-11T03:55:06.077Z,28.50
2018-04-11T03:57:33.498Z,27.70
2018-04-11T04:00:00.916Z,25.90
2018-04-11T04:02:28.320Z,26.13
2018-04-11T04:04:55.745Z,26.63
2018-04-11T04:07:23.151Z,27.17
2018-04-11T04:09:50.571Z,28.00
2018-04-11T04:12:17.983Z,26.27
2018-04-11T04:14:57.195Z,26.67
2018-04-11T04:17:36.453Z,28.03
2018-04-11T04:20:28.659Z,29.03
2018-04-11T04:22:56.070Z,28.47
2018-04-11T04:25:23.485Z,27.60
2018-04-11T04:27:50.902Z,25.93
2018-04-11T04:30:18.323Z,25.27
2018-04-11T04:32:45.784Z,28.73
2018-04-11T04:35:13.191Z,29.37
2018-04-11T04:37:40.779Z,26.83
2018-04-11T04:40:08.197Z,26.60
2018-04-11T04:42:35.628Z,26.60
2018-04-11T04:45:03.291Z,24.50
2018-04-11T04:47:30.696Z,25.07
2018-04-11T04:49:58.109Z,27.47
2018-04-11T04:52:25.699Z,25.70
2018-04-11T04:54:53.111Z,27.80
2018-04-11T04:57:20.533Z,28.40
2018-04-11T04:59:47.959Z,28.43
2018-04-11T05:02:15.369Z,24.50
2018-04-11T05:04:42.794Z,24.97
2018-04-11T05:07:10.187Z,26.10
2018-04-11T05:09:37.614Z,26.53
2018-04-11T05:12:05.024Z,28.27
2018-04-11T05:14:32.448Z,27.67
2018-04-11T05:16:59.872Z,30.57
2018-04-11T05:19:27.296Z,26.57
2018-04-11T05:21:54.713Z,28.40
2018-04-11T05:24:22.127Z,26.97
2018-04-11T05:26:49.548Z,26.50
2018-04-11T05:29:17.088Z,24.23
2018-04-11T05:31:44.508Z,27.13
2018-04-11T05:34:11.913Z,24.93
2018-04-11T05:36:39.338Z,26.37
2018-04-11T05:39:06.743Z,26.00
2018-04-11T05:41:34.187Z,26.30
2018-04-11T05:44:01.591Z,26.23
2018-04-11T05:46:29.008Z,28.90
2018-04-11T05:48:56.430Z,27.93
2018-04-11T05:51:23.839Z,28.53
2018-04-11T05:53:51.249Z,26.63
2018-04-11T05:56:18.672Z,29.13
2018-04-11T05:58:46.099Z,25.47
2018-04-11T06:01:13.518Z,25.77
2018-04-11T06:03:40.932Z,27.10
2018-04-11T06:06:08.464Z,25.50
2018-04-11T06:08:36.144Z,25.17
2018-04-11T06:11:03.549Z,26.03
2018-04-11T06:13:30.960Z,24.87
2018-04-11T06:15:58.386Z,25.37
2018-04-11T06:18:25.796Z,27.17
2018-04-11T06:20:53.284Z,25.00
2018-04-11T06:23:20.688Z,28.20
2018-04-11T06:25:48.119Z,26.57
2018-04-11T06:28:15.560Z,28.10
2018-04-11T06:30:42.951Z,28.80
2018-04-11T06:33:10.360Z,27.93
2018-04-11T06:35:38.004Z,28.60
2018-04-11T06:38:05.415Z,27.13
2018-04-11T06:40:32.816Z,28.47
2018-04-11T06:43:00.252Z,26.50
2018-04-11T06:45:27.658Z,28.43
2018-04-11T06:47:55.344Z,30.93
2018-04-11T06:50:22.762Z,32.27
2018-04-11T06:52:50.209Z,30.77
2018-04-11T06:55:17.724Z,31.77
2018-04-11T06:57:45.175Z,31.90
2018-04-11T07:00:12.576Z,30.90
2018-04-11T07:02:40.116Z,27.33
2018-04-11T07:05:07.515Z,27.90
2018-04-11T07:07:34.924Z,27.27
2018-04-11T07:10:02.352Z,25.43
2018-04-11T07:12:29.764Z,28.40
2018-04-11T07:14:57.412Z,29.67
2018-04-11T07:17:24.815Z,29.67
2018-04-11T07:19:52.341Z,30.27
2018-04-11T07:22:19.780Z,30.07
2018-04-11T07:24:47.204Z,26.80
2018-04-11T07:27:14.624Z,28.93
2018-04-11T07:29:42.050Z,29.17
2018-04-11T07:32:09.706Z,29.17
2018-04-11T07:34:37.117Z,28.33
2018-04-11T07:37:04.529Z,27.53
2018-04-11T07:39:31.960Z,27.87
2018-04-11T07:41:59.363Z,27.03
2018-04-11T07:44:26.799Z,25.47
2018-04-11T07:46:54.251Z,26.00
2018-04-11T07:49:21.679Z,25.63
2018-04-11T07:51:49.080Z,25.40
2018-04-11T07:54:16.724Z,24.83
2018-04-11T07:56:44.145Z,24.47
2018-04-11T07:59:11.554Z,24.33
2018-04-11T08:01:38.992Z,22.47
2018-04-11T08:04:06.433Z,23.83
2018-04-11T08:06:33.843Z,25.67
2018-04-11T08:09:01.478Z,22.60
2018-04-11T08:11:28.887Z,24.03
2018-04-11T08:13:56.300Z,22.53
2018-04-11T08:16:23.749Z,22.53
2018-04-11T08:18:51.199Z,24.02
2018-04-11T08:21:18.598Z,21.70
2018-04-11T08:23:45.580Z,22.83
2018-04-11T08:26:12.992Z,24.33
2018-04-11T08:28:40.396Z,23.20
2018-04-11T08:31:07.850Z,23.87
2018-04-11T08:33:35.439Z,23.50
2018-04-11T08:36:02.858Z,23.13
2018-04-11T08:38:30.271Z,23.90
2018-04-11T08:40:57.718Z,22.40
2018-04-11T08:43:25.156Z,24.03
2018-04-11T08:45:52.601Z,23.60
2018-04-11T08:48:20.010Z,22.97
2018-04-11T08:50:47.482Z,21.47
2018-04-11T08:53:14.912Z,23.20
2018-04-11T08:55:42.352Z,23.53
2018-04-11T08:58:09.768Z,22.87
2018-04-11T09:00:37.181Z,23.77
2018-04-11T09:03:04.651Z,23.37
2018-04-11T09:05:32.083Z,24.00
2018-04-11T09:07:59.497Z,23.47
2018-04-11T09:10:26.923Z,23.63
2018-04-11T09:12:54.348Z,22.43
2018-04-11T09:15:21.753Z,22.57
2018-04-11T09:17:49.266Z,22.67
2018-04-11T09:20:16.664Z,21.87
2018-04-11T09:22:44.096Z,21.97
2018-04-11T09:25:11.491Z,21.10
2018-04-11T09:27:38.916Z,22.63
2018-04-11T09:30:06.328Z,22.60
2018-04-11T09:32:33.753Z,22.03
2018-04-11T09:35:01.180Z,22.80
2018-04-11T09:37:28.920Z,23.03
2018-04-11T09:39:56.396Z,19.30
2018-04-11T09:42:23.807Z,22.27
2018-04-11T09:44:51.228Z,21.90
2018-04-11T09:47:18.656Z,20.70
2018-04-11T09:49:46.112Z,21.33
2018-04-11T09:52:13.547Z,21.93
2018-04-11T09:54:41.012Z,23.30
2018-04-11T09:57:08.412Z,23.07
2018-04-11T09:59:36.167Z,21.33
2018-04-11T10:02:06.680Z,23.00
2018-04-11T10:04:34.153Z,23.97
2018-04-11T10:07:01.633Z,25.37
2018-04-11T10:09:29.279Z,25.00
2018-04-11T10:11:56.720Z,25.90
2018-04-11T10:14:24.772Z,27.53
2018-04-11T10:16:52.209Z,27.33
2018-04-11T10:19:19.628Z,27.40
2018-04-11T10:21:47.063Z,27.67
2018-04-11T10:24:14.471Z,25.73
2018-04-11T10:26:41.882Z,26.63
2018-04-11T10:29:09.315Z,26.03
2018-04-11T10:31:36.735Z,24.03
2018-04-11T10:34:04.138Z,28.47
2018-04-11T10:36:32.167Z,25.23
2018-04-11T10:38:59.669Z,25.77
2018-04-11T10:41:27.234Z,28.43
2018-04-11T10:43:54.760Z,29.93
2018-04-11T10:46:22.174Z,29.47
2018-04-11T10:48:49.607Z,29.93
2018-04-11T10:51:17.012Z,27.30
2018-04-11T10:53:44.429Z,26.10
2018-04-11T10:56:11.860Z,28.97
2018-04-11T10:58:39.295Z,26.47
2018-04-11T11:01:06.696Z,25.90
2018-04-11T11:03:34.158Z,29.60
2018-04-11T11:06:01.575Z,28.57
2018-04-11T11:08:28.996Z,28.27
2018-04-11T11:10:56.428Z,26.43
2018-04-11T11:13:24.063Z,26.03
2018-04-11T11:15:51.462Z,26.13
2018-04-11T11:18:18.900Z,28.43
2018-04-11T11:20:59.291Z,28.03
2018-04-11T11:23:26.715Z,29.30
2018-04-11T11:25:54.151Z,28.83
2018-04-11T11:28:21.540Z,27.97
2018-04-11T11:30:49.158Z,27.67
2018-04-11T11:33:16.596Z,27.90
2018-04-11T11:35:44.015Z,27.70
2018-04-11T11:38:11.430Z,29.00
2018-04-11T11:40:38.959Z,28.70
2018-04-11T11:43:06.402Z,27.60
2018-04-11T11:45:33.820Z,27.53
2018-04-11T11:48:01.252Z,26.63
2018-04-11T11:50:28.660Z,27.00
2018-04-11T11:52:56.149Z,25.83
2018-04-11T11:55:23.567Z,25.73
2018-04-11T11:57:50.978Z,23.27
2018-04-11T12:00:18.479Z,24.77
2018-04-11T12:02:45.892Z,26.20
2018-04-11T12:05:13.367Z,26.47
2018-04-11T12:07:40.771Z,28.30
2018-04-11T12:10:08.176Z,27.07
2018-04-11T12:12:35.607Z,28.97
2018-04-11T12:15:03.300Z,30.47
2018-04-11T12:17:30.712Z,30.30
2018-04-11T12:19:58.145Z,29.40
2018-04-11T12:22:25.576Z,29.43
2018-04-11T12:24:53.280Z,29.50
2018-04-11T12:27:20.704Z,30.27
2018-04-11T12:29:48.108Z,29.93
2018-04-11T12:32:15.531Z,31.00
2018-04-11T12:34:42.939Z,32.70
2018-04-11T12:37:10.364Z,33.40
2018-04-11T12:39:37.773Z,32.43
2018-04-11T12:42:05.191Z,30.87
2018-04-11T12:44:32.600Z,32.47
2018-04-11T12:47:00.005Z,31.90
2018-04-11T12:49:27.568Z,32.63
2018-04-11T12:51:55.238Z,34.07
2018-04-11T12:54:22.652Z,34.07
2018-04-11T12:56:50.071Z,32.73
2018-04-11T13:02:07.967Z,31.03
2018-04-11T13:04:35.413Z,30.73
2018-04-11T13:07:02.841Z,32.17
2018-04-11T13:09:30.248Z,33.60
2018-04-11T13:11:57.673Z,33.73
2018-04-11T13:14:25.099Z,35.50
2018-04-11T13:16:52.512Z,32.97
2018-04-11T13:19:19.972Z,31.43
2018-04-11T13:21:47.382Z,35.87
2018-04-11T13:24:14.783Z,36.37
2018-04-11T13:26:42.441Z,34.73
2018-04-11T13:29:09.852Z,37.63
2018-04-11T13:31:37.273Z,37.70
2018-04-11T13:34:04.963Z,34.90
2018-04-11T13:36:32.363Z,35.77
2018-04-11T13:38:59.771Z,37.87
2018-04-11T13:41:27.212Z,36.53
2018-04-11T13:43:54.627Z,37.33
2018-04-11T13:46:22.044Z,39.97
2018-04-11T13:48:49.468Z,39.90
2018-04-11T13:51:16.896Z,39.60
2018-04-11T13:53:44.400Z,42.13
2018-04-11T13:56:11.800Z,41.90
2018-04-11T13:58:39.248Z,41.87
2018-04-11T14:01:06.668Z,45.83
2018-04-11T14:03:34.068Z,45.40
2018-04-11T14:06:01.515Z,45.30
2018-04-11T14:08:28.950Z,45.90
2018-04-11T14:10:56.352Z,43.10
2018-04-11T14:13:23.785Z,42.87
2018-04-11T14:15:51.191Z,43.37
2018-04-11T14:18:18.621Z,44.73
2018-04-11T14:20:46.058Z,43.73
2018-04-11T14:23:13.475Z,45.30
2018-04-11T14:25:40.916Z,45.63
2018-04-11T14:28:08.336Z,49.73
2018-04-11T14:30:35.743Z,52.67
2018-04-11T14:33:03.161Z,52.83
2018-04-11T14:35:30.597Z,50.03
2018-04-11T14:37:58.025Z,50.57
2018-04-11T14:40:25.439Z,50.20
2018-04-11T14:42:52.882Z,51.10
2018-04-11T14:45:20.288Z,52.03
2018-04-11T14:47:47.709Z,50.77
2018-04-11T14:50:15.125Z,52.23
2018-04-11T14:52:42.551Z,52.07
2018-04-11T14:55:09.996Z,52.07
2018-04-11T14:57:37.436Z,49.60
2018-04-11T15:00:04.894Z,50.63
2018-04-11T15:02:32.430Z,52.77
2018-04-11T15:04:59.851Z,52.93
2018-04-11T15:07:27.260Z,55.17
2018-04-11T15:09:54.972Z,53.37
2018-04-11T15:12:22.379Z,52.27
2018-04-11T15:14:49.789Z,52.33
2018-04-11T15:17:17.243Z,53.23
2018-04-11T15:19:44.661Z,52.70
2018-04-11T15:22:12.063Z,53.43
2018-04-11T15:24:40.692Z,54.67
2018-04-11T15:27:08.134Z,54.50
2018-04-11T15:29:35.542Z,54.73
2018-04-11T15:32:02.968Z,56.97
2018-04-11T15:34:30.400Z,56.93
2018-04-11T15:36:57.913Z,56.00
2018-04-11T15:39:25.366Z,55.90
2018-04-11T15:41:52.747Z,55.80
2018-04-11T15:44:20.166Z,56.13
2018-04-11T15:46:47.652Z,57.33
2018-04-11T15:49:15.074Z,56.53
2018-04-11T15:51:42.489Z,52.13
2018-04-11T15:54:09.933Z,50.60
2018-04-11T15:56:37.421Z,48.67
2018-04-11T15:59:04.820Z,51.40
2018-04-11T16:01:32.240Z,52.23
2018-04-11T16:03:59.665Z,51.80
2018-04-11T16:06:27.084Z,52.03
2018-04-11T16:08:54.507Z,49.97
2018-04-11T16:11:21.996Z,52.03
2018-04-11T16:13:49.416Z,51.70
2018-04-11T16:16:16.834Z,51.17
2018-04-11T16:18:44.231Z,55.20
2018-04-11T16:21:11.660Z,53.73
2018-04-11T16:23:39.070Z,54.43
2018-04-11T16:26:06.513Z,54.17
2018-04-11T16:28:33.915Z,51.47
2018-04-11T16:31:01.345Z,53.80
2018-04-11T16:33:28.766Z,52.17
2018-04-11T16:35:56.247Z,51.27
2018-04-11T16:38:23.692Z,53.87
2018-04-11T16:40:51.121Z,53.57
2018-04-11T16:43:18.585Z,54.37
2018-04-11T16:45:46.008Z,52.20
2018-04-11T16:48:13.420Z,53.77
2018-04-11T16:50:40.824Z,54.57
2018-04-11T16:53:08.263Z,52.13
2018-04-11T16:55:35.673Z,50.80
2018-04-11T16:58:03.242Z,52.60
2018-04-11T17:00:30.648Z,53.37
2018-04-11T17:02:58.065Z,49.80
2018-04-11T17:05:25.484Z,46.90
2018-04-11T17:07:52.983Z,47.50
2018-04-11T17:10:20.391Z,46.53
2018-04-11T17:12:47.799Z,45.83
2018-04-11T17:15:15.367Z,46.87
2018-04-11T17:17:42.773Z,45.67
2018-04-11T17:20:10.180Z,44.43
2018-04-11T17:22:49.572Z,46.17
2018-04-11T17:25:28.735Z,46.87
2018-04-11T17:28:07.868Z,45.13
2018-04-11T17:30:47.003Z,45.70
2018-04-11T17:33:14.417Z,47.80
2018-04-11T17:35:41.828Z,48.23
2018-04-11T17:38:09.258Z,46.83
2018-04-11T17:40:36.660Z,49.27
2018-04-11T17:43:04.088Z,49.57
2018-04-11T17:45:31.516Z,49.20
2018-04-11T17:47:58.945Z,48.73
2018-04-11T17:50:26.370Z,49.07
2018-04-11T17:52:53.842Z,50.73
2018-04-11T17:55:21.216Z,49.00
2018-04-11T17:57:48.636Z,51.53
2018-04-11T18:00:16.045Z,54.07
2018-04-11T18:02:43.463Z,52.63
2018-04-11T18:05:10.874Z,53.30
2018-04-11T18:07:38.292Z,50.63
2018-04-11T18:10:05.703Z,52.37
2018-04-11T18:12:33.132Z,51.43
2018-04-11T18:15:00.568Z,48.23
2018-04-11T18:17:28.022Z,49.47
2018-04-11T18:19:55.435Z,50.87
2018-04-11T18:22:22.865Z,48.23
2018-04-11T18:24:50.363Z,48.67
2018-04-11T18:27:17.776Z,49.13
2018-04-11T18:29:45.202Z,45.33
2018-04-11T18:32:12.701Z,46.80
2018-04-11T18:34:40.124Z,48.57
2018-04-11T18:37:07.553Z,47.33
2018-04-11T18:39:35.014Z,45.50
2018-04-11T18:42:02.469Z,48.50
2018-04-11T18:44:29.884Z,46.63
2018-04-11T18:46:57.293Z,47.83
2018-04-11T18:49:24.724Z,47.60
2018-04-11T18:51:52.133Z,43.47
2018-04-11T18:54:19.561Z,45.40
2018-04-11T18:56:46.961Z,44.13
2018-04-11T18:59:14.401Z,43.63
2018-04-11T19:01:41.839Z,41.53
2018-04-11T19:04:09.269Z,44.33
2018-04-11T19:06:36.692Z,40.13
2018-04-11T19:09:04.113Z,44.07
2018-04-11T19:11:31.523Z,44.17
2018-04-11T19:13:58.985Z,41.80
2018-04-11T19:16:26.397Z,41.17
2018-04-11T19:18:53.896Z,38.13
2018-04-11T19:21:21.322Z,37.30
2018-04-11T19:23:48.739Z,36.13
2018-04-11T19:26:16.175Z,34.60
2018-04-11T19:28:43.625Z,33.47
2018-04-11T19:31:11.248Z,33.33
2018-04-11T19:33:38.668Z,33.17
2018-04-11T19:36:06.108Z,34.73
2018-04-11T19:38:33.551Z,35.17
2018-04-11T19:41:01.083Z,35.23
2018-04-11T19:43:28.517Z,36.70
2018-04-11T19:45:55.928Z,38.37
2018-04-11T19:48:23.446Z,39.17
2018-04-11T19:50:50.843Z,40.00
2018-04-11T19:53:18.276Z,39.83
2018-04-11T19:55:45.723Z,41.47
2018-04-11T19:58:13.125Z,42.17
2018-04-11T20:00:40.527Z,40.97
2018-04-11T20:03:07.958Z,43.53
2018-04-11T20:05:35.367Z,43.60
2018-04-11T20:08:02.831Z,44.17
2018-04-11T20:10:30.340Z,43.80
2018-04-11T20:12:57.740Z,46.87
2018-04-11T20:15:25.176Z,47.63
2018-04-11T20:17:52.605Z,50.20
2018-04-11T20:20:20.041Z,50.07
2018-04-11T20:22:47.448Z,46.67
2018-04-11T20:25:15.031Z,51.10
2018-04-11T20:27:42.432Z,51.03
2018-04-11T20:30:09.843Z,52.40
2018-04-11T20:32:37.272Z,53.73
2018-04-11T20:35:04.678Z,52.20
2018-04-11T20:37:32.084Z,51.33
2018-04-11T20:39:59.499Z,53.50
2018-04-11T20:42:26.925Z,51.67
2018-04-11T20:44:54.352Z,51.73
2018-04-11T20:47:21.960Z,51.17
2018-04-11T20:49:49.364Z,53.17
2018-04-11T20:52:16.791Z,51.73
2018-04-11T20:54:44.212Z,51.50
2018-04-11T20:57:11.630Z,51.73
2018-04-11T20:59:39.108Z,49.87
2018-04-11T21:02:06.514Z,51.80
2018-04-11T21:04:33.935Z,49.50
2018-04-11T21:07:01.361Z,49.90
2018-04-11T21:09:28.769Z,51.07
2018-04-11T21:11:56.211Z,48.73
2018-04-11T21:14:23.615Z,52.63
2018-04-11T21:16:51.046Z,51.07
2018-04-11T21:19:18.473Z,50.30
2018-04-11T21:21:45.888Z,51.47
2018-04-11T21:24:13.332Z,50.27
2018-04-11T21:26:40.756Z,52.43
2018-04-11T21:29:08.161Z,48.00
2018-04-11T21:31:35.559Z,53.77
2018-04-11T21:34:03.015Z,51.47
2018-04-11T21:36:30.446Z,47.50
2018-04-11T21:38:57.936Z,48.13
2018-04-11T21:41:25.371Z,45.37
2018-04-11T21:43:52.788Z,49.83
2018-04-11T21:46:20.197Z,47.93
2018-04-11T21:48:47.597Z,49.77
2018-04-11T21:51:15.023Z,47.37
2018-04-11T21:53:42.436Z,49.77
2018-04-11T21:56:09.999Z,46.70
2018-04-11T21:58:37.413Z,51.43
2018-04-11T22:01:04.816Z,49.30
2018-04-11T22:03:32.236Z,49.80
2018-04-11T22:05:59.648Z,47.90
2018-04-11T22:08:27.070Z,48.87
2018-04-11T22:10:54.480Z,49.53
2018-04-11T22:13:21.907Z,48.80
2018-04-11T22:15:49.364Z,47.93
2018-04-11T22:18:16.796Z,49.67
2018-04-11T22:20:44.211Z,48.53
2018-04-11T22:23:11.616Z,42.87
2018-04-11T22:25:39.039Z,46.73
2018-04-11T22:28:06.444Z,45.33
2018-04-11T22:30:33.869Z,44.57
2018-04-11T22:33:01.464Z,48.00
2018-04-11T22:35:28.884Z,45.57
2018-04-11T22:37:56.297Z,44.40
2018-04-11T22:40:23.717Z,39.43
2018-04-11T22:42:51.127Z,40.30
2018-04-11T22:45:18.562Z,39.23
2018-04-11T22:47:45.965Z,40.40
2018-04-11T22:50:13.392Z,43.07
2018-04-11T22:52:40.860Z,42.20
2018-04-11T22:55:08.272Z,41.17
2018-04-11T22:57:35.688Z,42.43
2018-04-11T23:00:03.121Z,40.53
2018-04-11T23:02:30.539Z,42.50
2018-04-11T23:04:58.003Z,39.67
2018-04-11T23:07:25.429Z,35.77
2018-04-11T23:09:52.840Z,41.23
2018-04-11T23:12:20.268Z,39.73
2018-04-11T23:14:47.693Z,42.90
2018-04-11T23:17:15.105Z,37.90
2018-04-11T23:19:42.519Z,37.17
2018-04-11T23:22:09.928Z,38.40
2018-04-11T23:24:37.364Z,37.23
2018-04-11T23:27:04.791Z,39.37
2018-04-11T23:29:32.214Z,39.90
2018-04-11T23:31:59.625Z,37.30
2018-04-11T23:34:27.047Z,41.47
2018-04-11T23:36:54.479Z,38.30
2018-04-11T23:39:21.888Z,35.60
2018-04-11T23:41:49.317Z,35.83
2018-04-11T23:44:16.740Z,37.40
2018-04-11T23:46:44.172Z,34.87
2018-04-11T23:49:11.580Z,37.10
2018-04-11T23:51:39.004Z,40.23
2018-04-11T23:54:06.429Z,37.63
2018-04-11T23:56:33.854Z,33.30
2018-04-11T23:59:01.260Z,31.23
